sensor_id;sensor_type;location;lat;lon;timestamp;temperature;humidity
55091;DHT22;40985;53.180;5.800;2023-11-19T00:00:05;11.10;99.90
55091;DHT22;40985;53.180;5.800;2023-11-19T00:02:40;11.10;99.90
55091;DHT22;40985;53.180;5.800;2023-11-19T00:05:06;11.20;99.90
55091;DHT22;40985;53.180;5.800;2023-11-19T00:07:35;11.20;99.90
55091;DHT22;40985;53.180;5.800;2023-11-19T00:10:02;11.50;99.90
55091;DHT22;40985;53.180;5.800;2023-11-19T00:12:32;11.40;99.90
55091;DHT22;40985;53.180;5.800;2023-11-19T00:14:57;11.50;99.90
55091;DHT22;40985;53.180;5.800;2023-11-19T00:17:23;11.30;99.90
55091;DHT22;40985;53.180;5.800;2023-11-19T00:19:49;11.50;99.90
55091;DHT22;40985;53.180;5.800;2023-11-19T00:22:17;11.50;99.90
55091;DHT22;40985;53.180;5.800;2023-11-19T00:24:42;11.50;99.90
55091;DHT22;40985;53.180;5.800;2023-11-19T00:27:08;11.50;99.90
55091;DHT22;40985;53.180;5.800;2023-11-19T00:29:34;11.60;99.90
55091;DHT22;40985;53.180;5.800;2023-11-19T00:31:59;11.60;99.90
55091;DHT22;40985;53.180;5.800;2023-11-19T00:34:25;11.40;99.90
55091;DHT22;40985;53.180;5.800;2023-11-19T00:36:51;11.30;99.90
55091;DHT22;40985;53.180;5.800;2023-11-19T00:39:17;11.40;99.90
55091;DHT22;40985;53.180;5.800;2023-11-19T00:41:43;11.60;99.90
55091;DHT22;40985;53.180;5.800;2023-11-19T00:44:09;11.60;99.90
55091;DHT22;40985;53.180;5.800;2023-11-19T00:46:34;11.20;99.90
55091;DHT22;40985;53.180;5.800;2023-11-19T00:49:00;11.50;99.90
55091;DHT22;40985;53.180;5.800;2023-11-19T00:51:26;11.70;99.90
55091;DHT22;40985;53.180;5.800;2023-11-19T00:53:52;11.60;99.90
55091;DHT22;40985;53.180;5.800;2023-11-19T00:56:20;11.60;99.90
55091;DHT22;40985;53.180;5.800;2023-11-19T00:58:46;11.20;99.90
55091;DHT22;40985;53.180;5.800;2023-11-19T01:01:13;11.40;99.90
55091;DHT22;40985;53.180;5.800;2023-11-19T01:03:38;11.60;99.90
55091;DHT22;40985;53.180;5.800;2023-11-19T01:06:04;11.30;99.90
55091;DHT22;40985;53.180;5.800;2023-11-19T01:08:30;11.60;99.90
55091;DHT22;40985;53.180;5.800;2023-11-19T01:10:56;11.40;99.90
55091;DHT22;40985;53.180;5.800;2023-11-19T01:13:22;11.20;99.90
55091;DHT22;40985;53.180;5.800;2023-11-19T01:15:48;11.50;99.90
55091;DHT22;40985;53.180;5.800;2023-11-19T01:18:13;11.10;99.90
55091;DHT22;40985;53.180;5.800;2023-11-19T01:20:39;11.10;99.90
55091;DHT22;40985;53.180;5.800;2023-11-19T01:23:04;11.20;99.90
55091;DHT22;40985;53.180;5.800;2023-11-19T01:25:30;11.10;99.90
55091;DHT22;40985;53.180;5.800;2023-11-19T01:27:56;11.40;99.90
55091;DHT22;40985;53.180;5.800;2023-11-19T01:30:25;11.10;99.90
55091;DHT22;40985;53.180;5.800;2023-11-19T01:32:51;11.40;99.90
55091;DHT22;40985;53.180;5.800;2023-11-19T01:35:16;11.30;99.90
55091;DHT22;40985;53.180;5.800;2023-11-19T01:37:42;11.10;99.90
55091;DHT22;40985;53.180;5.800;2023-11-19T01:40:08;11.20;99.90
55091;DHT22;40985;53.180;5.800;2023-11-19T01:42:38;11.00;99.90
55091;DHT22;40985;53.180;5.800;2023-11-19T01:45:04;11.30;99.90
55091;DHT22;40985;53.180;5.800;2023-11-19T01:47:32;11.20;99.90
55091;DHT22;40985;53.180;5.800;2023-11-19T01:49:59;11.00;99.90
55091;DHT22;40985;53.180;5.800;2023-11-19T01:52:25;11.00;99.90
55091;DHT22;40985;53.180;5.800;2023-11-19T01:54:53;11.00;99.90
55091;DHT22;40985;53.180;5.800;2023-11-19T01:57:20;10.80;99.90
55091;DHT22;40985;53.180;5.800;2023-11-19T01:59:49;10.80;99.90
55091;DHT22;40985;53.180;5.800;2023-11-19T02:02:16;11.10;99.90
55091;DHT22;40985;53.180;5.800;2023-11-19T02:04:47;10.90;99.90
55091;DHT22;40985;53.180;5.800;2023-11-19T02:07:14;11.10;99.90
55091;DHT22;40985;53.180;5.800;2023-11-19T02:09:43;10.80;99.90
55091;DHT22;40985;53.180;5.800;2023-11-19T02:12:09;10.90;99.90
55091;DHT22;40985;53.180;5.800;2023-11-19T02:14:37;10.90;99.90
55091;DHT22;40985;53.180;5.800;2023-11-19T02:17:03;10.80;99.90
55091;DHT22;40985;53.180;5.800;2023-11-19T02:19:29;10.90;99.90
55091;DHT22;40985;53.180;5.800;2023-11-19T02:21:55;10.80;99.90
55091;DHT22;40985;53.180;5.800;2023-11-19T02:24:22;10.70;99.90
55091;DHT22;40985;53.180;5.800;2023-11-19T02:27:08;10.90;99.90
55091;DHT22;40985;53.180;5.800;2023-11-19T02:29:35;10.80;99.90
55091;DHT22;40985;53.180;5.800;2023-11-19T02:32:01;10.80;99.90
55091;DHT22;40985;53.180;5.800;2023-11-19T02:34:27;10.60;99.90
55091;DHT22;40985;53.180;5.800;2023-11-19T02:36:53;10.90;99.90
55091;DHT22;40985;53.180;5.800;2023-11-19T02:39:19;10.80;99.90
55091;DHT22;40985;53.180;5.800;2023-11-19T02:41:47;10.70;99.90
55091;DHT22;40985;53.180;5.800;2023-11-19T02:44:16;10.90;99.90
55091;DHT22;40985;53.180;5.800;2023-11-19T02:46:42;10.80;99.90
55091;DHT22;40985;53.180;5.800;2023-11-19T02:49:08;10.80;99.90
55091;DHT22;40985;53.180;5.800;2023-11-19T02:51:33;11.10;99.90
55091;DHT22;40985;53.180;5.800;2023-11-19T02:54:00;10.90;99.90
55091;DHT22;40985;53.180;5.800;2023-11-19T02:56:26;11.10;99.90
55091;DHT22;40985;53.180;5.800;2023-11-19T02:58:52;11.00;99.90
55091;DHT22;40985;53.180;5.800;2023-11-19T03:01:24;11.20;99.90
55091;DHT22;40985;53.180;5.800;2023-11-19T03:04:00;11.00;99.90
55091;DHT22;40985;53.180;5.800;2023-11-19T03:06:27;11.20;99.90
55091;DHT22;40985;53.180;5.800;2023-11-19T03:08:54;11.10;99.90
55091;DHT22;40985;53.180;5.800;2023-11-19T03:11:20;11.30;99.90
55091;DHT22;40985;53.180;5.800;2023-11-19T03:13:46;11.30;99.90
55091;DHT22;40985;53.180;5.800;2023-11-19T03:16:12;11.20;99.90
55091;DHT22;40985;53.180;5.800;2023-11-19T03:18:38;11.30;99.90
55091;DHT22;40985;53.180;5.800;2023-11-19T03:21:06;11.30;99.90
55091;DHT22;40985;53.180;5.800;2023-11-19T03:23:33;11.40;99.90
55091;DHT22;40985;53.180;5.800;2023-11-19T03:25:59;11.40;99.90
55091;DHT22;40985;53.180;5.800;2023-11-19T03:28:29;11.40;99.90
55091;DHT22;40985;53.180;5.800;2023-11-19T03:30:54;11.20;99.90
55091;DHT22;40985;53.180;5.800;2023-11-19T03:33:20;11.20;99.90
55091;DHT22;40985;53.180;5.800;2023-11-19T03:35:46;11.30;99.90
55091;DHT22;40985;53.180;5.800;2023-11-19T03:38:12;11.20;99.90
55091;DHT22;40985;53.180;5.800;2023-11-19T03:40:38;11.20;99.90
55091;DHT22;40985;53.180;5.800;2023-11-19T03:43:04;11.10;99.90
55091;DHT22;40985;53.180;5.800;2023-11-19T03:45:30;11.20;99.90
55091;DHT22;40985;53.180;5.800;2023-11-19T03:47:56;11.10;99.90
55091;DHT22;40985;53.180;5.800;2023-11-19T03:50:22;11.00;99.90
55091;DHT22;40985;53.180;5.800;2023-11-19T03:52:48;11.00;99.90
55091;DHT22;40985;53.180;5.800;2023-11-19T03:55:14;10.80;99.90
55091;DHT22;40985;53.180;5.800;2023-11-19T03:57:39;10.90;99.90
55091;DHT22;40985;53.180;5.800;2023-11-19T04:00:06;10.80;99.90
55091;DHT22;40985;53.180;5.800;2023-11-19T04:02:39;10.70;99.90
55091;DHT22;40985;53.180;5.800;2023-11-19T04:05:06;10.70;99.90
55091;DHT22;40985;53.180;5.800;2023-11-19T04:07:32;10.60;99.90
55091;DHT22;40985;53.180;5.800;2023-11-19T04:09:58;10.60;99.90
55091;DHT22;40985;53.180;5.800;2023-11-19T04:12:24;10.60;99.90
55091;DHT22;40985;53.180;5.800;2023-11-19T04:14:50;10.40;99.90
55091;DHT22;40985;53.180;5.800;2023-11-19T04:17:16;10.50;99.90
55091;DHT22;40985;53.180;5.800;2023-11-19T04:19:41;10.50;99.90
55091;DHT22;40985;53.180;5.800;2023-11-19T04:22:07;10.60;99.90
55091;DHT22;40985;53.180;5.800;2023-11-19T04:24:34;10.70;99.90
55091;DHT22;40985;53.180;5.800;2023-11-19T04:27:00;10.70;99.90
55091;DHT22;40985;53.180;5.800;2023-11-19T04:29:26;10.70;99.90
55091;DHT22;40985;53.180;5.800;2023-11-19T04:31:52;10.60;99.90
55091;DHT22;40985;53.180;5.800;2023-11-19T04:34:17;10.70;99.90
55091;DHT22;40985;53.180;5.800;2023-11-19T04:36:43;10.70;99.90
55091;DHT22;40985;53.180;5.800;2023-11-19T04:39:09;10.70;99.90
55091;DHT22;40985;53.180;5.800;2023-11-19T04:41:46;10.70;99.90
55091;DHT22;40985;53.180;5.800;2023-11-19T04:44:13;10.70;99.90
55091;DHT22;40985;53.180;5.800;2023-11-19T04:46:39;10.70;99.90
55091;DHT22;40985;53.180;5.800;2023-11-19T04:49:04;10.70;99.90
55091;DHT22;40985;53.180;5.800;2023-11-19T04:51:30;10.70;99.90
55091;DHT22;40985;53.180;5.800;2023-11-19T04:53:56;10.70;99.90
55091;DHT22;40985;53.180;5.800;2023-11-19T04:56:21;10.70;99.90
55091;DHT22;40985;53.180;5.800;2023-11-19T04:58:48;10.70;99.90
55091;DHT22;40985;53.180;5.800;2023-11-19T05:01:14;10.60;99.90
55091;DHT22;40985;53.180;5.800;2023-11-19T05:03:43;10.70;99.90
55091;DHT22;40985;53.180;5.800;2023-11-19T05:06:09;10.70;99.90
55091;DHT22;40985;53.180;5.800;2023-11-19T05:08:35;10.70;99.90
55091;DHT22;40985;53.180;5.800;2023-11-19T05:11:01;10.70;99.90
55091;DHT22;40985;53.180;5.800;2023-11-19T05:13:26;10.70;99.90
55091;DHT22;40985;53.180;5.800;2023-11-19T05:15:52;10.70;99.90
55091;DHT22;40985;53.180;5.800;2023-11-19T05:18:18;10.80;99.90
55091;DHT22;40985;53.180;5.800;2023-11-19T05:20:45;10.70;99.90
55091;DHT22;40985;53.180;5.800;2023-11-19T05:23:11;10.70;99.90
55091;DHT22;40985;53.180;5.800;2023-11-19T05:25:37;10.70;99.90
55091;DHT22;40985;53.180;5.800;2023-11-19T05:28:02;10.60;99.90
55091;DHT22;40985;53.180;5.800;2023-11-19T05:30:28;10.60;99.90
55091;DHT22;40985;53.180;5.800;2023-11-19T05:32:54;10.60;99.90
55091;DHT22;40985;53.180;5.800;2023-11-19T05:35:19;10.50;99.90
55091;DHT22;40985;53.180;5.800;2023-11-19T05:37:45;10.60;99.90
55091;DHT22;40985;53.180;5.800;2023-11-19T05:40:11;10.60;99.90
55091;DHT22;40985;53.180;5.800;2023-11-19T05:42:41;10.60;99.90
55091;DHT22;40985;53.180;5.800;2023-11-19T05:45:08;10.60;99.90
55091;DHT22;40985;53.180;5.800;2023-11-19T05:47:34;10.50;99.90
55091;DHT22;40985;53.180;5.800;2023-11-19T05:49:59;10.50;99.90
55091;DHT22;40985;53.180;5.800;2023-11-19T05:52:25;10.50;99.90
55091;DHT22;40985;53.180;5.800;2023-11-19T05:54:51;10.50;99.90
55091;DHT22;40985;53.180;5.800;2023-11-19T05:57:18;10.50;99.90
55091;DHT22;40985;53.180;5.800;2023-11-19T05:59:51;10.50;99.90
55091;DHT22;40985;53.180;5.800;2023-11-19T06:02:17;10.50;99.90
55091;DHT22;40985;53.180;5.800;2023-11-19T06:04:42;10.50;99.90
55091;DHT22;40985;53.180;5.800;2023-11-19T06:07:10;10.50;99.90
55091;DHT22;40985;53.180;5.800;2023-11-19T06:09:35;10.50;99.90
55091;DHT22;40985;53.180;5.800;2023-11-19T06:12:01;10.50;99.90
55091;DHT22;40985;53.180;5.800;2023-11-19T06:14:31;10.50;99.90
55091;DHT22;40985;53.180;5.800;2023-11-19T06:16:57;10.50;99.90
55091;DHT22;40985;53.180;5.800;2023-11-19T06:19:23;10.50;99.90
55091;DHT22;40985;53.180;5.800;2023-11-19T06:21:50;10.50;99.90
55091;DHT22;40985;53.180;5.800;2023-11-19T06:24:16;10.50;99.90
55091;DHT22;40985;53.180;5.800;2023-11-19T06:26:42;10.50;99.90
55091;DHT22;40985;53.180;5.800;2023-11-19T06:29:07;10.50;99.90
55091;DHT22;40985;53.180;5.800;2023-11-19T06:31:33;10.50;99.90
55091;DHT22;40985;53.180;5.800;2023-11-19T06:33:59;10.50;99.90
55091;DHT22;40985;53.180;5.800;2023-11-19T06:36:24;10.60;99.90
55091;DHT22;40985;53.180;5.800;2023-11-19T06:38:52;10.50;99.90
55091;DHT22;40985;53.180;5.800;2023-11-19T06:41:18;10.50;99.90
55091;DHT22;40985;53.180;5.800;2023-11-19T06:43:43;10.50;99.90
55091;DHT22;40985;53.180;5.800;2023-11-19T06:46:16;10.50;99.90
55091;DHT22;40985;53.180;5.800;2023-11-19T06:48:42;10.50;99.90
55091;DHT22;40985;53.180;5.800;2023-11-19T06:51:10;10.50;99.90
55091;DHT22;40985;53.180;5.800;2023-11-19T06:53:35;10.50;99.90
55091;DHT22;40985;53.180;5.800;2023-11-19T06:56:02;10.60;99.90
55091;DHT22;40985;53.180;5.800;2023-11-19T06:58:32;10.60;99.90
55091;DHT22;40985;53.180;5.800;2023-11-19T07:01:00;10.50;99.90
55091;DHT22;40985;53.180;5.800;2023-11-19T07:03:25;10.60;99.90
55091;DHT22;40985;53.180;5.800;2023-11-19T07:05:51;10.60;99.90
55091;DHT22;40985;53.180;5.800;2023-11-19T07:08:17;10.60;99.90
55091;DHT22;40985;53.180;5.800;2023-11-19T07:10:42;10.60;99.90
55091;DHT22;40985;53.180;5.800;2023-11-19T07:13:08;10.50;99.90
55091;DHT22;40985;53.180;5.800;2023-11-19T07:15:34;10.50;99.90
55091;DHT22;40985;53.180;5.800;2023-11-19T07:17:59;10.40;99.90
55091;DHT22;40985;53.180;5.800;2023-11-19T07:20:25;10.40;99.90
55091;DHT22;40985;53.180;5.800;2023-11-19T07:22:52;10.40;99.90
55091;DHT22;40985;53.180;5.800;2023-11-19T07:25:18;10.40;99.90
55091;DHT22;40985;53.180;5.800;2023-11-19T07:27:43;10.30;99.90
55091;DHT22;40985;53.180;5.800;2023-11-19T07:30:10;10.30;99.90
55091;DHT22;40985;53.180;5.800;2023-11-19T07:32:36;10.30;99.90
55091;DHT22;40985;53.180;5.800;2023-11-19T07:35:04;10.40;99.90
55091;DHT22;40985;53.180;5.800;2023-11-19T07:37:31;10.40;99.90
55091;DHT22;40985;53.180;5.800;2023-11-19T07:39:57;10.40;99.90
55091;DHT22;40985;53.180;5.800;2023-11-19T07:42:22;10.40;99.90
55091;DHT22;40985;53.180;5.800;2023-11-19T07:44:49;10.40;99.90
55091;DHT22;40985;53.180;5.800;2023-11-19T07:47:15;10.40;99.90
55091;DHT22;40985;53.180;5.800;2023-11-19T07:49:40;10.40;99.90
55091;DHT22;40985;53.180;5.800;2023-11-19T07:52:06;10.50;99.90
55091;DHT22;40985;53.180;5.800;2023-11-19T07:54:32;10.40;99.90
55091;DHT22;40985;53.180;5.800;2023-11-19T07:56:58;10.50;99.90
55091;DHT22;40985;53.180;5.800;2023-11-19T07:59:23;10.50;99.90
55091;DHT22;40985;53.180;5.800;2023-11-19T08:01:49;10.50;99.90
55091;DHT22;40985;53.180;5.800;2023-11-19T08:04:15;10.60;99.90
55091;DHT22;40985;53.180;5.800;2023-11-19T08:06:40;10.60;99.90
55091;DHT22;40985;53.180;5.800;2023-11-19T08:09:06;10.70;99.90
55091;DHT22;40985;53.180;5.800;2023-11-19T08:11:33;10.70;99.90
55091;DHT22;40985;53.180;5.800;2023-11-19T08:13:59;10.70;99.90
55091;DHT22;40985;53.180;5.800;2023-11-19T08:16:24;10.60;99.90
55091;DHT22;40985;53.180;5.800;2023-11-19T08:18:50;10.60;99.90
55091;DHT22;40985;53.180;5.800;2023-11-19T08:21:16;10.60;99.90
55091;DHT22;40985;53.180;5.800;2023-11-19T08:23:42;10.60;99.90
55091;DHT22;40985;53.180;5.800;2023-11-19T08:26:08;10.50;99.90
55091;DHT22;40985;53.180;5.800;2023-11-19T08:28:34;10.50;99.90
55091;DHT22;40985;53.180;5.800;2023-11-19T08:31:00;10.50;99.90
55091;DHT22;40985;53.180;5.800;2023-11-19T08:33:26;10.50;99.90
55091;DHT22;40985;53.180;5.800;2023-11-19T08:35:52;10.50;99.90
55091;DHT22;40985;53.180;5.800;2023-11-19T08:38:18;10.50;99.90
55091;DHT22;40985;53.180;5.800;2023-11-19T08:40:44;10.50;99.90
55091;DHT22;40985;53.180;5.800;2023-11-19T08:43:09;10.50;99.90
55091;DHT22;40985;53.180;5.800;2023-11-19T08:45:35;10.60;99.90
55091;DHT22;40985;53.180;5.800;2023-11-19T08:48:01;10.60;99.90
55091;DHT22;40985;53.180;5.800;2023-11-19T08:50:27;10.60;99.90
55091;DHT22;40985;53.180;5.800;2023-11-19T08:52:53;10.70;99.90
55091;DHT22;40985;53.180;5.800;2023-11-19T08:55:18;10.70;99.90
55091;DHT22;40985;53.180;5.800;2023-11-19T08:57:44;10.70;99.90
55091;DHT22;40985;53.180;5.800;2023-11-19T09:00:11;10.80;99.90
55091;DHT22;40985;53.180;5.800;2023-11-19T09:02:39;10.90;99.90
55091;DHT22;40985;53.180;5.800;2023-11-19T09:05:05;10.90;99.90
55091;DHT22;40985;53.180;5.800;2023-11-19T09:07:33;11.00;99.90
55091;DHT22;40985;53.180;5.800;2023-11-19T09:09:58;11.10;99.90
55091;DHT22;40985;53.180;5.800;2023-11-19T09:12:24;11.00;99.90
55091;DHT22;40985;53.180;5.800;2023-11-19T09:14:50;11.10;99.90
55091;DHT22;40985;53.180;5.800;2023-11-19T09:17:16;11.10;99.90
55091;DHT22;40985;53.180;5.800;2023-11-19T09:19:43;11.20;99.90
55091;DHT22;40985;53.180;5.800;2023-11-19T09:22:08;11.20;99.90
55091;DHT22;40985;53.180;5.800;2023-11-19T09:24:34;11.20;99.90
55091;DHT22;40985;53.180;5.800;2023-11-19T09:26:59;11.20;99.90
55091;DHT22;40985;53.180;5.800;2023-11-19T09:29:25;11.20;99.90
55091;DHT22;40985;53.180;5.800;2023-11-19T09:31:51;11.20;99.90
55091;DHT22;40985;53.180;5.800;2023-11-19T09:34:17;11.20;99.90
55091;DHT22;40985;53.180;5.800;2023-11-19T09:36:43;11.20;99.90
55091;DHT22;40985;53.180;5.800;2023-11-19T09:39:10;11.30;99.90
55091;DHT22;40985;53.180;5.800;2023-11-19T09:41:36;11.30;99.90
55091;DHT22;40985;53.180;5.800;2023-11-19T09:44:02;11.30;99.90
55091;DHT22;40985;53.180;5.800;2023-11-19T09:46:28;11.30;99.90
55091;DHT22;40985;53.180;5.800;2023-11-19T09:48:56;11.30;99.90
55091;DHT22;40985;53.180;5.800;2023-11-19T09:51:23;11.40;99.90
55091;DHT22;40985;53.180;5.800;2023-11-19T09:53:49;11.40;99.90
55091;DHT22;40985;53.180;5.800;2023-11-19T09:56:15;11.30;99.90
55091;DHT22;40985;53.180;5.800;2023-11-19T09:58:42;11.30;99.90
55091;DHT22;40985;53.180;5.800;2023-11-19T10:01:08;11.30;99.90
55091;DHT22;40985;53.180;5.800;2023-11-19T10:03:37;11.40;99.90
55091;DHT22;40985;53.180;5.800;2023-11-19T10:06:09;11.40;99.90
55091;DHT22;40985;53.180;5.800;2023-11-19T10:08:39;11.40;99.90
55091;DHT22;40985;53.180;5.800;2023-11-19T10:11:06;11.50;99.90
55091;DHT22;40985;53.180;5.800;2023-11-19T10:13:31;11.50;99.90
55091;DHT22;40985;53.180;5.800;2023-11-19T10:16:04;11.50;99.90
55091;DHT22;40985;53.180;5.800;2023-11-19T10:18:30;11.50;99.90
55091;DHT22;40985;53.180;5.800;2023-11-19T10:20:55;11.50;99.90
55091;DHT22;40985;53.180;5.800;2023-11-19T10:23:21;11.60;99.90
55091;DHT22;40985;53.180;5.800;2023-11-19T10:25:47;11.60;99.90
55091;DHT22;40985;53.180;5.800;2023-11-19T10:28:15;11.70;99.90
55091;DHT22;40985;53.180;5.800;2023-11-19T10:30:42;11.60;99.90
55091;DHT22;40985;53.180;5.800;2023-11-19T10:33:12;11.60;99.90
55091;DHT22;40985;53.180;5.800;2023-11-19T10:35:56;11.60;99.90
55091;DHT22;40985;53.180;5.800;2023-11-19T10:38:23;11.60;99.90
55091;DHT22;40985;53.180;5.800;2023-11-19T10:40:50;11.70;99.90
55091;DHT22;40985;53.180;5.800;2023-11-19T10:43:17;11.60;99.90
55091;DHT22;40985;53.180;5.800;2023-11-19T10:45:43;11.60;99.90
55091;DHT22;40985;53.180;5.800;2023-11-19T10:48:09;11.70;99.90
55091;DHT22;40985;53.180;5.800;2023-11-19T10:50:39;11.70;99.90
55091;DHT22;40985;53.180;5.800;2023-11-19T10:53:05;11.80;99.90
55091;DHT22;40985;53.180;5.800;2023-11-19T10:55:35;11.80;99.90
55091;DHT22;40985;53.180;5.800;2023-11-19T10:58:05;11.70;99.90
55091;DHT22;40985;53.180;5.800;2023-11-19T11:00:57;11.80;99.90
55091;DHT22;40985;53.180;5.800;2023-11-19T11:03:25;11.80;99.90
55091;DHT22;40985;53.180;5.800;2023-11-19T11:05:53;11.80;99.90
55091;DHT22;40985;53.180;5.800;2023-11-19T11:08:19;11.70;99.90
55091;DHT22;40985;53.180;5.800;2023-11-19T11:10:57;11.70;99.90
55091;DHT22;40985;53.180;5.800;2023-11-19T11:13:24;11.70;99.90
55091;DHT22;40985;53.180;5.800;2023-11-19T11:15:51;11.70;99.90
55091;DHT22;40985;53.180;5.800;2023-11-19T11:18:17;11.70;99.90
55091;DHT22;40985;53.180;5.800;2023-11-19T11:20:46;11.60;99.90
55091;DHT22;40985;53.180;5.800;2023-11-19T11:36:20;11.70;99.90
55091;DHT22;40985;53.180;5.800;2023-11-19T11:38:48;11.70;99.90
55091;DHT22;40985;53.180;5.800;2023-11-19T11:41:21;11.80;99.90
55091;DHT22;40985;53.180;5.800;2023-11-19T11:43:48;11.80;99.90
55091;DHT22;40985;53.180;5.800;2023-11-19T11:49:08;12.00;99.90
55091;DHT22;40985;53.180;5.800;2023-11-19T11:54:11;12.10;99.90
55091;DHT22;40985;53.180;5.800;2023-11-19T11:56:37;12.20;99.90
55091;DHT22;40985;53.180;5.800;2023-11-19T11:59:19;12.20;99.90
55091;DHT22;40985;53.180;5.800;2023-11-19T12:02:00;12.20;99.90
55091;DHT22;40985;53.180;5.800;2023-11-19T12:04:28;12.10;99.90
55091;DHT22;40985;53.180;5.800;2023-11-19T12:07:13;12.10;99.90
55091;DHT22;40985;53.180;5.800;2023-11-19T12:09:41;12.10;99.90
55091;DHT22;40985;53.180;5.800;2023-11-19T12:12:23;12.10;99.90
55091;DHT22;40985;53.180;5.800;2023-11-19T12:15:05;12.00;99.90
55091;DHT22;40985;53.180;5.800;2023-11-19T12:20:01;12.10;99.90
55091;DHT22;40985;53.180;5.800;2023-11-19T12:22:27;12.10;99.90
55091;DHT22;40985;53.180;5.800;2023-11-19T12:24:54;12.10;99.90
55091;DHT22;40985;53.180;5.800;2023-11-19T12:27:20;12.10;99.90
55091;DHT22;40985;53.180;5.800;2023-11-19T12:29:49;12.10;99.90
55091;DHT22;40985;53.180;5.800;2023-11-19T12:32:15;12.10;99.90
55091;DHT22;40985;53.180;5.800;2023-11-19T12:34:41;12.10;99.90
55091;DHT22;40985;53.180;5.800;2023-11-19T12:37:07;12.10;99.90
55091;DHT22;40985;53.180;5.800;2023-11-19T12:39:35;12.10;99.90
55091;DHT22;40985;53.180;5.800;2023-11-19T12:42:01;12.10;99.90
55091;DHT22;40985;53.180;5.800;2023-11-19T12:44:27;12.20;99.90
55091;DHT22;40985;53.180;5.800;2023-11-19T12:47:08;12.30;99.90
55091;DHT22;40985;53.180;5.800;2023-11-19T12:49:36;12.30;99.90
55091;DHT22;40985;53.180;5.800;2023-11-19T12:52:10;12.30;99.90
55091;DHT22;40985;53.180;5.800;2023-11-19T12:54:36;12.20;99.90
55091;DHT22;40985;53.180;5.800;2023-11-19T12:57:03;12.20;99.90
55091;DHT22;40985;53.180;5.800;2023-11-19T12:59:31;12.20;99.90
55091;DHT22;40985;53.180;5.800;2023-11-19T13:01:57;12.20;99.90
55091;DHT22;40985;53.180;5.800;2023-11-19T13:04:27;12.10;99.90
55091;DHT22;40985;53.180;5.800;2023-11-19T13:06:53;12.10;99.90
55091;DHT22;40985;53.180;5.800;2023-11-19T13:09:26;12.00;99.90
55091;DHT22;40985;53.180;5.800;2023-11-19T13:11:52;11.90;99.90
55091;DHT22;40985;53.180;5.800;2023-11-19T13:14:18;11.90;99.90
55091;DHT22;40985;53.180;5.800;2023-11-19T13:16:44;11.90;99.90
55091;DHT22;40985;53.180;5.800;2023-11-19T13:19:16;11.80;99.90
55091;DHT22;40985;53.180;5.800;2023-11-19T13:21:44;11.80;99.90
55091;DHT22;40985;53.180;5.800;2023-11-19T13:24:12;11.70;99.90
55091;DHT22;40985;53.180;5.800;2023-11-19T13:26:38;11.70;99.90
55091;DHT22;40985;53.180;5.800;2023-11-19T13:29:04;11.60;99.90
55091;DHT22;40985;53.180;5.800;2023-11-19T13:31:30;11.60;99.90
55091;DHT22;40985;53.180;5.800;2023-11-19T13:33:55;11.60;99.90
55091;DHT22;40985;53.180;5.800;2023-11-19T13:36:22;11.60;99.90
55091;DHT22;40985;53.180;5.800;2023-11-19T13:38:47;11.50;99.90
55091;DHT22;40985;53.180;5.800;2023-11-19T13:41:13;11.50;99.90
55091;DHT22;40985;53.180;5.800;2023-11-19T13:43:39;11.50;99.90
55091;DHT22;40985;53.180;5.800;2023-11-19T13:46:06;11.50;99.90
55091;DHT22;40985;53.180;5.800;2023-11-19T13:48:31;11.50;99.90
55091;DHT22;40985;53.180;5.800;2023-11-19T13:50:57;11.50;99.90
55091;DHT22;40985;53.180;5.800;2023-11-19T13:53:23;11.60;99.90
55091;DHT22;40985;53.180;5.800;2023-11-19T13:55:49;11.60;99.90
55091;DHT22;40985;53.180;5.800;2023-11-19T13:58:15;11.60;99.90
55091;DHT22;40985;53.180;5.800;2023-11-19T14:00:42;11.50;99.90
55091;DHT22;40985;53.180;5.800;2023-11-19T14:03:08;11.50;99.90
55091;DHT22;40985;53.180;5.800;2023-11-19T14:05:36;11.50;99.90
55091;DHT22;40985;53.180;5.800;2023-11-19T14:08:01;11.50;99.90
55091;DHT22;40985;53.180;5.800;2023-11-19T14:10:27;11.40;99.90
55091;DHT22;40985;53.180;5.800;2023-11-19T14:12:54;11.40;99.90
55091;DHT22;40985;53.180;5.800;2023-11-19T14:15:19;11.40;99.90
55091;DHT22;40985;53.180;5.800;2023-11-19T14:17:45;11.40;99.90
55091;DHT22;40985;53.180;5.800;2023-11-19T14:20:11;11.30;99.90
55091;DHT22;40985;53.180;5.800;2023-11-19T14:22:41;11.30;99.90
55091;DHT22;40985;53.180;5.800;2023-11-19T14:25:09;11.30;99.90
55091;DHT22;40985;53.180;5.800;2023-11-19T14:27:38;11.30;99.90
55091;DHT22;40985;53.180;5.800;2023-11-19T14:30:11;11.30;99.90
55091;DHT22;40985;53.180;5.800;2023-11-19T14:32:38;11.30;99.90
55091;DHT22;40985;53.180;5.800;2023-11-19T14:35:04;11.30;99.90
55091;DHT22;40985;53.180;5.800;2023-11-19T14:37:30;11.30;99.90
55091;DHT22;40985;53.180;5.800;2023-11-19T14:40:00;11.20;99.90
55091;DHT22;40985;53.180;5.800;2023-11-19T14:42:26;11.30;99.90
55091;DHT22;40985;53.180;5.800;2023-11-19T14:44:52;11.20;99.90
55091;DHT22;40985;53.180;5.800;2023-11-19T14:47:19;11.20;99.90
55091;DHT22;40985;53.180;5.800;2023-11-19T14:49:45;11.10;99.90
55091;DHT22;40985;53.180;5.800;2023-11-19T14:52:10;11.10;99.90
55091;DHT22;40985;53.180;5.800;2023-11-19T14:54:37;11.10;99.90
55091;DHT22;40985;53.180;5.800;2023-11-19T14:57:04;11.10;99.90
55091;DHT22;40985;53.180;5.800;2023-11-19T14:59:30;11.10;99.90
55091;DHT22;40985;53.180;5.800;2023-11-19T15:01:56;11.20;99.90
55091;DHT22;40985;53.180;5.800;2023-11-19T15:04:22;11.10;99.90
55091;DHT22;40985;53.180;5.800;2023-11-19T15:06:48;11.10;99.90
55091;DHT22;40985;53.180;5.800;2023-11-19T15:09:14;11.10;99.90
55091;DHT22;40985;53.180;5.800;2023-11-19T15:11:45;11.10;99.90
55091;DHT22;40985;53.180;5.800;2023-11-19T15:14:14;11.00;99.90
55091;DHT22;40985;53.180;5.800;2023-11-19T15:16:42;10.90;99.90
55091;DHT22;40985;53.180;5.800;2023-11-19T15:19:08;10.80;99.90
55091;DHT22;40985;53.180;5.800;2023-11-19T15:21:35;10.80;99.90
55091;DHT22;40985;53.180;5.800;2023-11-19T15:24:01;10.70;99.90
55091;DHT22;40985;53.180;5.800;2023-11-19T15:26:30;10.60;99.90
55091;DHT22;40985;53.180;5.800;2023-11-19T15:28:56;10.50;99.90
55091;DHT22;40985;53.180;5.800;2023-11-19T15:31:23;10.50;99.90
55091;DHT22;40985;53.180;5.800;2023-11-19T15:33:49;10.50;99.90
55091;DHT22;40985;53.180;5.800;2023-11-19T15:36:16;10.50;99.90
55091;DHT22;40985;53.180;5.800;2023-11-19T15:38:43;10.40;99.90
55091;DHT22;40985;53.180;5.800;2023-11-19T15:41:09;10.40;99.90
55091;DHT22;40985;53.180;5.800;2023-11-19T15:43:35;10.40;99.90
55091;DHT22;40985;53.180;5.800;2023-11-19T15:46:05;10.30;99.90
55091;DHT22;40985;53.180;5.800;2023-11-19T15:48:31;10.30;99.90